Pagrindinis puslapis
METAR-TAF:

METAR-TAF

Oro uostai :

Yasuj, Iranas

platuma: 30-41-49N, ilguma: 051-33E, Aukštis: 1825 m

Dabartinis oras

Ataskaita buvo paskelbta 36 minutes, ne 11:00 UTC
Vėjas 10 kt iš Pietų/Pietvakarių
Temperatūra 27°C
Drėgmė 16%
Slėgis 1023 hPa
Matomumas 10 km arba daugiau
Išsisklaidę debesys ne aukštis 4000 ft
Su prošvaistėmis ne aukštis 8000 ft

METAR: OISY 211100Z 20010KT 9999 SCT040 BKN080 27/M01 Q1023

Laikas: 16:06 (11:36 UTC)


TAF: trūkstamas

Orai ataskaitas ir orų prognozės (METAR, TAF).

turimą stotys yra geltonos ir raudonos taškus žemėlapyje.

Perkelti pele per norėdami pamatyti stoties vardą.

Tada spustelėkite, norėdami matyti oro stebėjimo ir prognozės.

Norėdami pakeisti žemėlapį: spustelėkite ant žalios mygtukų su juodo kryžiaus žemyn,; žalią mygtuką su brūkšneliu, jei norite nutolinti; arba žalių rodyklių gretimoms žemėlapius.


METAR-TAF: